Atlanta, Georgia
Traffic Map
Current Weather Conditions
Atlanta, Georgia
Clear
Clear
17°
Feels Like: 17°
Wind Chill: 17° Ceiling: Unl
Heat Index: 17° Visibility: 10mi
Dew Point: 13° Wind: 8mph
Humidity: 80% Direction: 60° (ENE)
Pressure: 30.14in Gusts: 0mph
Raw Report DataKATL 230952Z 06007KT 10SM CLR 17/13 A3014 RMK AO2 SLP199 T01670133
Traffic Incident Summary
Active as of:
Severity:
Category:
InformationThere was an issue retrieving the traffic information for this location. Please try a different location or try again shortly.
Advertisements
Track Severe Weather on mobile